sensor_id;sensor_type;location;lat;lon;timestamp;P1;durP1;ratioP1;P2;durP2;ratioP2
55148;SDS011;49539;48.160;11.530;2023-12-07T00:00:31;16.05;;;9.68;;
55148;SDS011;49539;48.160;11.530;2023-12-07T00:02:56;14.98;;;9.55;;
55148;SDS011;49539;48.160;11.530;2023-12-07T00:05:22;15.55;;;9.05;;
55148;SDS011;49539;48.160;11.530;2023-12-07T00:07:47;16.75;;;10.05;;
55148;SDS011;49539;48.160;11.530;2023-12-07T00:10:12;15.70;;;9.27;;
55148;SDS011;49539;48.160;11.530;2023-12-07T00:12:37;17.65;;;9.70;;
55148;SDS011;49539;48.160;11.530;2023-12-07T00:15:03;16.55;;;9.40;;
55148;SDS011;49539;48.160;11.530;2023-12-07T00:17:28;18.33;;;9.30;;
55148;SDS011;49539;48.160;11.530;2023-12-07T00:19:54;15.77;;;9.80;;
55148;SDS011;49539;48.160;11.530;2023-12-07T00:22:20;14.73;;;9.65;;
55148;SDS011;49539;48.160;11.530;2023-12-07T00:24:46;20.65;;;9.55;;
55148;SDS011;49539;48.160;11.530;2023-12-07T00:27:11;18.80;;;10.63;;
55148;SDS011;49539;48.160;11.530;2023-12-07T00:29:37;19.25;;;10.50;;
55148;SDS011;49539;48.160;11.530;2023-12-07T00:32:03;20.25;;;10.68;;
55148;SDS011;49539;48.160;11.530;2023-12-07T00:34:28;15.35;;;9.88;;
55148;SDS011;49539;48.160;11.530;2023-12-07T00:36:53;19.52;;;11.25;;
55148;SDS011;49539;48.160;11.530;2023-12-07T00:39:18;18.02;;;9.15;;
55148;SDS011;49539;48.160;11.530;2023-12-07T00:41:44;18.15;;;11.23;;
55148;SDS011;49539;48.160;11.530;2023-12-07T00:44:10;19.95;;;10.70;;
55148;SDS011;49539;48.160;11.530;2023-12-07T00:46:35;17.02;;;11.52;;
55148;SDS011;49539;48.160;11.530;2023-12-07T00:49:00;17.77;;;11.10;;
55148;SDS011;49539;48.160;11.530;2023-12-07T00:51:26;18.60;;;11.15;;
55148;SDS011;49539;48.160;11.530;2023-12-07T00:53:51;19.92;;;11.38;;
55148;SDS011;49539;48.160;11.530;2023-12-07T00:56:16;22.00;;;12.65;;
55148;SDS011;49539;48.160;11.530;2023-12-07T00:58:42;19.30;;;11.43;;
55148;SDS011;49539;48.160;11.530;2023-12-07T01:01:07;18.73;;;11.73;;
55148;SDS011;49539;48.160;11.530;2023-12-07T01:03:33;21.40;;;11.18;;
55148;SDS011;49539;48.160;11.530;2023-12-07T01:05:58;22.58;;;12.32;;
55148;SDS011;49539;48.160;11.530;2023-12-07T01:08:26;23.50;;;12.75;;
55148;SDS011;49539;48.160;11.530;2023-12-07T01:10:51;22.05;;;12.50;;
55148;SDS011;49539;48.160;11.530;2023-12-07T01:13:17;17.40;;;12.13;;
55148;SDS011;49539;48.160;11.530;2023-12-07T01:15:42;25.20;;;13.82;;
55148;SDS011;49539;48.160;11.530;2023-12-07T01:18:07;22.10;;;13.35;;
55148;SDS011;49539;48.160;11.530;2023-12-07T01:20:33;18.63;;;11.40;;
55148;SDS011;49539;48.160;11.530;2023-12-07T01:22:58;20.35;;;12.98;;
55148;SDS011;49539;48.160;11.530;2023-12-07T01:25:23;25.05;;;13.40;;
55148;SDS011;49539;48.160;11.530;2023-12-07T01:27:49;23.63;;;14.13;;
55148;SDS011;49539;48.160;11.530;2023-12-07T01:30:14;24.80;;;12.52;;
55148;SDS011;49539;48.160;11.530;2023-12-07T01:32:40;21.38;;;11.68;;
55148;SDS011;49539;48.160;11.530;2023-12-07T01:35:06;22.92;;;13.43;;
55148;SDS011;49539;48.160;11.530;2023-12-07T01:37:31;20.90;;;12.15;;
55148;SDS011;49539;48.160;11.530;2023-12-07T01:39:56;23.85;;;12.30;;
55148;SDS011;49539;48.160;11.530;2023-12-07T01:42:22;22.00;;;12.82;;
55148;SDS011;49539;48.160;11.530;2023-12-07T01:44:47;26.20;;;14.15;;
55148;SDS011;49539;48.160;11.530;2023-12-07T01:47:12;23.77;;;12.43;;
55148;SDS011;49539;48.160;11.530;2023-12-07T01:49:38;20.08;;;12.57;;
55148;SDS011;49539;48.160;11.530;2023-12-07T01:52:06;21.55;;;12.48;;
55148;SDS011;49539;48.160;11.530;2023-12-07T01:54:31;22.42;;;12.40;;
55148;SDS011;49539;48.160;11.530;2023-12-07T01:56:57;22.45;;;12.40;;
55148;SDS011;49539;48.160;11.530;2023-12-07T01:59:22;22.75;;;14.30;;
55148;SDS011;49539;48.160;11.530;2023-12-07T02:01:48;24.45;;;13.20;;
55148;SDS011;49539;48.160;11.530;2023-12-07T02:04:13;21.52;;;12.40;;
55148;SDS011;49539;48.160;11.530;2023-12-07T02:06:39;23.00;;;13.75;;
55148;SDS011;49539;48.160;11.530;2023-12-07T02:09:04;22.38;;;13.25;;
55148;SDS011;49539;48.160;11.530;2023-12-07T02:11:30;22.85;;;12.77;;
55148;SDS011;49539;48.160;11.530;2023-12-07T02:13:56;23.63;;;12.82;;
55148;SDS011;49539;48.160;11.530;2023-12-07T02:16:35;22.10;;;12.25;;
55148;SDS011;49539;48.160;11.530;2023-12-07T02:21:38;24.02;;;13.45;;
55148;SDS011;49539;48.160;11.530;2023-12-07T02:24:06;25.15;;;14.80;;
55148;SDS011;49539;48.160;11.530;2023-12-07T02:26:32;25.60;;;13.98;;
55148;SDS011;49539;48.160;11.530;2023-12-07T02:28:57;23.98;;;14.07;;
55148;SDS011;49539;48.160;11.530;2023-12-07T02:31:22;27.73;;;14.68;;
55148;SDS011;49539;48.160;11.530;2023-12-07T02:33:48;28.05;;;14.23;;
55148;SDS011;49539;48.160;11.530;2023-12-07T02:36:14;29.35;;;14.75;;
55148;SDS011;49539;48.160;11.530;2023-12-07T02:38:40;25.45;;;14.43;;
55148;SDS011;49539;48.160;11.530;2023-12-07T02:41:06;23.75;;;14.88;;
55148;SDS011;49539;48.160;11.530;2023-12-07T02:43:32;28.95;;;14.80;;
55148;SDS011;49539;48.160;11.530;2023-12-07T02:45:58;24.88;;;14.45;;
55148;SDS011;49539;48.160;11.530;2023-12-07T02:48:23;27.10;;;14.55;;
55148;SDS011;49539;48.160;11.530;2023-12-07T02:50:49;23.23;;;13.60;;
55148;SDS011;49539;48.160;11.530;2023-12-07T02:53:14;23.20;;;12.95;;
55148;SDS011;49539;48.160;11.530;2023-12-07T02:55:39;23.80;;;14.00;;
55148;SDS011;49539;48.160;11.530;2023-12-07T02:58:04;26.73;;;14.05;;
55148;SDS011;49539;48.160;11.530;2023-12-07T03:00:31;26.65;;;14.10;;
55148;SDS011;49539;48.160;11.530;2023-12-07T03:02:56;24.25;;;14.55;;
55148;SDS011;49539;48.160;11.530;2023-12-07T03:05:22;24.70;;;13.50;;
55148;SDS011;49539;48.160;11.530;2023-12-07T03:07:48;25.98;;;14.23;;
55148;SDS011;49539;48.160;11.530;2023-12-07T03:10:13;24.25;;;12.98;;
55148;SDS011;49539;48.160;11.530;2023-12-07T03:12:39;26.92;;;15.38;;
55148;SDS011;49539;48.160;11.530;2023-12-07T03:15:04;24.40;;;14.38;;
55148;SDS011;49539;48.160;11.530;2023-12-07T03:17:29;26.15;;;14.27;;
55148;SDS011;49539;48.160;11.530;2023-12-07T03:19:56;25.17;;;14.32;;
55148;SDS011;49539;48.160;11.530;2023-12-07T03:22:21;22.75;;;13.32;;
55148;SDS011;49539;48.160;11.530;2023-12-07T03:24:48;22.42;;;13.70;;
55148;SDS011;49539;48.160;11.530;2023-12-07T03:27:14;19.77;;;12.48;;
55148;SDS011;49539;48.160;11.530;2023-12-07T03:29:39;22.38;;;13.68;;
55148;SDS011;49539;48.160;11.530;2023-12-07T03:32:04;20.77;;;12.60;;
55148;SDS011;49539;48.160;11.530;2023-12-07T03:34:30;27.58;;;14.38;;
55148;SDS011;49539;48.160;11.530;2023-12-07T03:36:57;22.95;;;12.85;;
55148;SDS011;49539;48.160;11.530;2023-12-07T03:39:23;22.35;;;12.68;;
55148;SDS011;49539;48.160;11.530;2023-12-07T03:41:49;22.92;;;13.02;;
55148;SDS011;49539;48.160;11.530;2023-12-07T03:44:15;19.77;;;12.23;;
55148;SDS011;49539;48.160;11.530;2023-12-07T03:46:40;21.75;;;12.63;;
55148;SDS011;49539;48.160;11.530;2023-12-07T03:49:06;21.30;;;11.15;;
55148;SDS011;49539;48.160;11.530;2023-12-07T03:51:31;22.48;;;12.13;;
55148;SDS011;49539;48.160;11.530;2023-12-07T03:53:57;25.20;;;12.48;;
55148;SDS011;49539;48.160;11.530;2023-12-07T03:56:27;20.52;;;12.48;;
55148;SDS011;49539;48.160;11.530;2023-12-07T03:58:52;20.30;;;11.88;;
55148;SDS011;49539;48.160;11.530;2023-12-07T04:01:21;22.75;;;12.98;;
55148;SDS011;49539;48.160;11.530;2023-12-07T04:03:47;22.42;;;11.63;;
55148;SDS011;49539;48.160;11.530;2023-12-07T04:06:13;22.02;;;12.32;;
55148;SDS011;49539;48.160;11.530;2023-12-07T04:08:38;21.83;;;12.43;;
55148;SDS011;49539;48.160;11.530;2023-12-07T04:11:03;20.52;;;10.93;;
55148;SDS011;49539;48.160;11.530;2023-12-07T04:13:29;20.70;;;10.82;;
55148;SDS011;49539;48.160;11.530;2023-12-07T04:15:54;19.88;;;11.40;;
55148;SDS011;49539;48.160;11.530;2023-12-07T04:18:20;21.80;;;12.20;;
55148;SDS011;49539;48.160;11.530;2023-12-07T04:20:45;18.52;;;11.05;;
55148;SDS011;49539;48.160;11.530;2023-12-07T04:23:10;23.95;;;12.75;;
55148;SDS011;49539;48.160;11.530;2023-12-07T04:25:35;23.67;;;12.02;;
55148;SDS011;49539;48.160;11.530;2023-12-07T04:28:01;21.65;;;12.23;;
55148;SDS011;49539;48.160;11.530;2023-12-07T04:30:26;21.33;;;11.70;;
55148;SDS011;49539;48.160;11.530;2023-12-07T04:32:51;24.85;;;11.95;;
55148;SDS011;49539;48.160;11.530;2023-12-07T04:35:16;18.90;;;11.77;;
55148;SDS011;49539;48.160;11.530;2023-12-07T04:37:42;19.73;;;11.70;;
55148;SDS011;49539;48.160;11.530;2023-12-07T04:40:07;23.20;;;11.40;;
55148;SDS011;49539;48.160;11.530;2023-12-07T04:42:35;17.95;;;11.35;;
55148;SDS011;49539;48.160;11.530;2023-12-07T04:45:00;22.17;;;11.38;;
55148;SDS011;49539;48.160;11.530;2023-12-07T04:47:25;23.95;;;12.15;;
55148;SDS011;49539;48.160;11.530;2023-12-07T04:49:50;21.15;;;11.50;;
55148;SDS011;49539;48.160;11.530;2023-12-07T04:52:16;20.33;;;11.57;;
55148;SDS011;49539;48.160;11.530;2023-12-07T04:54:41;18.13;;;10.35;;
55148;SDS011;49539;48.160;11.530;2023-12-07T04:57:06;20.50;;;11.95;;
55148;SDS011;49539;48.160;11.530;2023-12-07T04:59:32;21.08;;;11.07;;
55148;SDS011;49539;48.160;11.530;2023-12-07T05:01:57;19.58;;;10.70;;
55148;SDS011;49539;48.160;11.530;2023-12-07T05:04:22;20.13;;;11.40;;
55148;SDS011;49539;48.160;11.530;2023-12-07T05:06:48;19.15;;;11.13;;
55148;SDS011;49539;48.160;11.530;2023-12-07T05:09:13;17.38;;;10.20;;
55148;SDS011;49539;48.160;11.530;2023-12-07T05:11:39;20.15;;;10.40;;
55148;SDS011;49539;48.160;11.530;2023-12-07T05:14:04;19.63;;;9.90;;
55148;SDS011;49539;48.160;11.530;2023-12-07T05:16:30;19.25;;;9.77;;
55148;SDS011;49539;48.160;11.530;2023-12-07T05:18:55;16.52;;;9.82;;
55148;SDS011;49539;48.160;11.530;2023-12-07T05:21:21;18.40;;;9.73;;
55148;SDS011;49539;48.160;11.530;2023-12-07T05:23:47;15.13;;;9.45;;
55148;SDS011;49539;48.160;11.530;2023-12-07T05:26:12;19.13;;;10.02;;
55148;SDS011;49539;48.160;11.530;2023-12-07T05:28:39;14.32;;;8.20;;
55148;SDS011;49539;48.160;11.530;2023-12-07T05:31:04;17.83;;;9.00;;
55148;SDS011;49539;48.160;11.530;2023-12-07T05:33:29;13.40;;;8.30;;
55148;SDS011;49539;48.160;11.530;2023-12-07T05:35:54;16.95;;;8.90;;
55148;SDS011;49539;48.160;11.530;2023-12-07T05:38:20;16.42;;;8.52;;
55148;SDS011;49539;48.160;11.530;2023-12-07T05:40:45;16.40;;;9.27;;
55148;SDS011;49539;48.160;11.530;2023-12-07T05:43:11;14.00;;;9.20;;
55148;SDS011;49539;48.160;11.530;2023-12-07T05:45:36;18.13;;;9.90;;
55148;SDS011;49539;48.160;11.530;2023-12-07T05:48:01;17.30;;;9.05;;
55148;SDS011;49539;48.160;11.530;2023-12-07T05:50:27;16.73;;;8.38;;
55148;SDS011;49539;48.160;11.530;2023-12-07T05:52:52;16.15;;;8.15;;
55148;SDS011;49539;48.160;11.530;2023-12-07T05:55:17;16.13;;;8.48;;
55148;SDS011;49539;48.160;11.530;2023-12-07T05:57:44;17.65;;;9.10;;
55148;SDS011;49539;48.160;11.530;2023-12-07T06:00:10;16.77;;;9.00;;
55148;SDS011;49539;48.160;11.530;2023-12-07T06:02:36;16.88;;;8.57;;
55148;SDS011;49539;48.160;11.530;2023-12-07T06:05:04;14.18;;;8.32;;
55148;SDS011;49539;48.160;11.530;2023-12-07T06:07:30;19.80;;;8.45;;
55148;SDS011;49539;48.160;11.530;2023-12-07T06:09:56;16.48;;;8.73;;
55148;SDS011;49539;48.160;11.530;2023-12-07T06:12:21;16.40;;;8.48;;
55148;SDS011;49539;48.160;11.530;2023-12-07T06:14:49;15.27;;;8.25;;
55148;SDS011;49539;48.160;11.530;2023-12-07T06:17:16;21.38;;;9.95;;
55148;SDS011;49539;48.160;11.530;2023-12-07T06:19:41;17.63;;;9.05;;
55148;SDS011;49539;48.160;11.530;2023-12-07T06:22:07;19.90;;;8.68;;
55148;SDS011;49539;48.160;11.530;2023-12-07T06:24:32;15.77;;;8.82;;
55148;SDS011;49539;48.160;11.530;2023-12-07T06:26:58;17.38;;;8.65;;
55148;SDS011;49539;48.160;11.530;2023-12-07T06:29:24;15.27;;;8.68;;
55148;SDS011;49539;48.160;11.530;2023-12-07T06:31:49;17.55;;;9.63;;
55148;SDS011;49539;48.160;11.530;2023-12-07T06:34:15;18.58;;;10.25;;
55148;SDS011;49539;48.160;11.530;2023-12-07T06:36:40;19.38;;;9.43;;
55148;SDS011;49539;48.160;11.530;2023-12-07T06:39:05;17.98;;;9.15;;
55148;SDS011;49539;48.160;11.530;2023-12-07T06:41:31;14.40;;;8.68;;
55148;SDS011;49539;48.160;11.530;2023-12-07T06:43:56;19.33;;;10.00;;
55148;SDS011;49539;48.160;11.530;2023-12-07T06:46:21;14.93;;;8.48;;
55148;SDS011;49539;48.160;11.530;2023-12-07T06:48:46;17.77;;;8.98;;
55148;SDS011;49539;48.160;11.530;2023-12-07T06:51:12;18.48;;;9.45;;
55148;SDS011;49539;48.160;11.530;2023-12-07T06:53:39;15.15;;;7.93;;
55148;SDS011;49539;48.160;11.530;2023-12-07T06:56:06;24.02;;;9.02;;
55148;SDS011;49539;48.160;11.530;2023-12-07T06:58:32;18.08;;;8.70;;
55148;SDS011;49539;48.160;11.530;2023-12-07T07:00:57;22.30;;;9.15;;
55148;SDS011;49539;48.160;11.530;2023-12-07T07:03:22;17.10;;;8.90;;
55148;SDS011;49539;48.160;11.530;2023-12-07T07:05:47;17.02;;;9.02;;
55148;SDS011;49539;48.160;11.530;2023-12-07T07:08:14;18.13;;;8.60;;
55148;SDS011;49539;48.160;11.530;2023-12-07T07:10:39;15.80;;;8.32;;
55148;SDS011;49539;48.160;11.530;2023-12-07T07:13:04;16.13;;;8.90;;
55148;SDS011;49539;48.160;11.530;2023-12-07T07:15:30;14.60;;;8.95;;
55148;SDS011;49539;48.160;11.530;2023-12-07T07:17:56;17.40;;;8.77;;
55148;SDS011;49539;48.160;11.530;2023-12-07T07:20:21;17.60;;;9.05;;
55148;SDS011;49539;48.160;11.530;2023-12-07T07:22:47;15.65;;;8.45;;
55148;SDS011;49539;48.160;11.530;2023-12-07T07:25:12;15.95;;;8.82;;
55148;SDS011;49539;48.160;11.530;2023-12-07T07:27:39;13.25;;;8.30;;
55148;SDS011;49539;48.160;11.530;2023-12-07T07:30:04;15.13;;;7.85;;
55148;SDS011;49539;48.160;11.530;2023-12-07T07:32:30;14.77;;;8.27;;
55148;SDS011;49539;48.160;11.530;2023-12-07T07:34:56;17.30;;;8.85;;
55148;SDS011;49539;48.160;11.530;2023-12-07T07:37:21;15.88;;;9.00;;
55148;SDS011;49539;48.160;11.530;2023-12-07T07:39:47;17.55;;;9.75;;
55148;SDS011;49539;48.160;11.530;2023-12-07T07:42:12;23.00;;;11.60;;
55148;SDS011;49539;48.160;11.530;2023-12-07T07:44:38;22.85;;;10.82;;
55148;SDS011;49539;48.160;11.530;2023-12-07T07:47:03;16.65;;;9.30;;
55148;SDS011;49539;48.160;11.530;2023-12-07T07:49:29;17.50;;;9.48;;
55148;SDS011;49539;48.160;11.530;2023-12-07T07:51:54;19.02;;;9.50;;
55148;SDS011;49539;48.160;11.530;2023-12-07T07:54:19;17.67;;;8.38;;
55148;SDS011;49539;48.160;11.530;2023-12-07T07:56:44;14.57;;;8.77;;
55148;SDS011;49539;48.160;11.530;2023-12-07T07:59:10;25.42;;;9.20;;
55148;SDS011;49539;48.160;11.530;2023-12-07T08:01:36;14.25;;;7.88;;
55148;SDS011;49539;48.160;11.530;2023-12-07T08:04:01;12.45;;;7.78;;
55148;SDS011;49539;48.160;11.530;2023-12-07T08:06:26;14.88;;;8.57;;
55148;SDS011;49539;48.160;11.530;2023-12-07T08:08:53;15.10;;;8.45;;
55148;SDS011;49539;48.160;11.530;2023-12-07T08:11:18;16.48;;;8.43;;
55148;SDS011;49539;48.160;11.530;2023-12-07T08:13:43;14.68;;;7.80;;
55148;SDS011;49539;48.160;11.530;2023-12-07T08:16:09;13.77;;;8.32;;
55148;SDS011;49539;48.160;11.530;2023-12-07T08:18:34;16.13;;;8.20;;
55148;SDS011;49539;48.160;11.530;2023-12-07T08:20:59;15.73;;;8.85;;
55148;SDS011;49539;48.160;11.530;2023-12-07T08:23:25;14.48;;;7.68;;
55148;SDS011;49539;48.160;11.530;2023-12-07T08:25:50;13.75;;;8.10;;
55148;SDS011;49539;48.160;11.530;2023-12-07T08:28:15;15.60;;;7.82;;
55148;SDS011;49539;48.160;11.530;2023-12-07T08:30:41;15.20;;;8.93;;
55148;SDS011;49539;48.160;11.530;2023-12-07T08:33:06;13.65;;;7.10;;
55148;SDS011;49539;48.160;11.530;2023-12-07T08:35:31;14.32;;;7.65;;
55148;SDS011;49539;48.160;11.530;2023-12-07T08:37:57;13.88;;;7.53;;
55148;SDS011;49539;48.160;11.530;2023-12-07T08:40:22;12.18;;;6.75;;
55148;SDS011;49539;48.160;11.530;2023-12-07T08:42:47;15.52;;;8.10;;
55148;SDS011;49539;48.160;11.530;2023-12-07T08:45:13;12.30;;;7.18;;
55148;SDS011;49539;48.160;11.530;2023-12-07T08:47:39;14.23;;;6.90;;
55148;SDS011;49539;48.160;11.530;2023-12-07T08:50:04;11.40;;;6.75;;
55148;SDS011;49539;48.160;11.530;2023-12-07T08:52:30;11.48;;;5.95;;
55148;SDS011;49539;48.160;11.530;2023-12-07T08:54:56;10.30;;;6.60;;
55148;SDS011;49539;48.160;11.530;2023-12-07T08:57:22;12.35;;;6.53;;
55148;SDS011;49539;48.160;11.530;2023-12-07T08:59:47;13.30;;;7.75;;
55148;SDS011;49539;48.160;11.530;2023-12-07T09:02:12;11.85;;;6.43;;
55148;SDS011;49539;48.160;11.530;2023-12-07T09:04:37;10.75;;;6.13;;
55148;SDS011;49539;48.160;11.530;2023-12-07T09:07:04;9.02;;;5.05;;
55148;SDS011;49539;48.160;11.530;2023-12-07T09:09:29;11.77;;;6.07;;
55148;SDS011;49539;48.160;11.530;2023-12-07T09:11:55;11.25;;;5.75;;
55148;SDS011;49539;48.160;11.530;2023-12-07T09:14:20;13.85;;;6.50;;
55148;SDS011;49539;48.160;11.530;2023-12-07T09:16:45;10.75;;;4.82;;
55148;SDS011;49539;48.160;11.530;2023-12-07T09:19:12;10.48;;;5.63;;
55148;SDS011;49539;48.160;11.530;2023-12-07T09:21:37;9.90;;;5.22;;
55148;SDS011;49539;48.160;11.530;2023-12-07T09:24:03;10.18;;;5.82;;
55148;SDS011;49539;48.160;11.530;2023-12-07T09:26:28;13.27;;;5.22;;
55148;SDS011;49539;48.160;11.530;2023-12-07T09:28:54;10.63;;;5.68;;
55148;SDS011;49539;48.160;11.530;2023-12-07T09:31:19;11.82;;;4.38;;
55148;SDS011;49539;48.160;11.530;2023-12-07T09:33:44;8.23;;;4.93;;
55148;SDS011;49539;48.160;11.530;2023-12-07T09:36:10;9.45;;;4.85;;
55148;SDS011;49539;48.160;11.530;2023-12-07T09:38:37;11.95;;;5.50;;
55148;SDS011;49539;48.160;11.530;2023-12-07T09:41:04;11.75;;;5.50;;
55148;SDS011;49539;48.160;11.530;2023-12-07T09:43:29;11.55;;;5.53;;
55148;SDS011;49539;48.160;11.530;2023-12-07T09:45:54;10.40;;;5.70;;
55148;SDS011;49539;48.160;11.530;2023-12-07T09:48:21;9.20;;;5.07;;
55148;SDS011;49539;48.160;11.530;2023-12-07T09:50:47;9.18;;;4.45;;
55148;SDS011;49539;48.160;11.530;2023-12-07T09:53:13;8.60;;;4.55;;
55148;SDS011;49539;48.160;11.530;2023-12-07T09:55:38;7.57;;;3.58;;
55148;SDS011;49539;48.160;11.530;2023-12-07T09:58:05;8.38;;;3.25;;
55148;SDS011;49539;48.160;11.530;2023-12-07T10:00:30;5.75;;;2.47;;
55148;SDS011;49539;48.160;11.530;2023-12-07T10:02:55;8.98;;;3.33;;
55148;SDS011;49539;48.160;11.530;2023-12-07T10:05:21;7.50;;;3.08;;
55148;SDS011;49539;48.160;11.530;2023-12-07T10:07:48;6.47;;;2.72;;
55148;SDS011;49539;48.160;11.530;2023-12-07T10:10:14;6.82;;;3.10;;
55148;SDS011;49539;48.160;11.530;2023-12-07T10:15:15;6.10;;;3.38;;
55148;SDS011;49539;48.160;11.530;2023-12-07T10:20:16;5.88;;;2.95;;
55148;SDS011;49539;48.160;11.530;2023-12-07T10:22:46;6.47;;;3.40;;
55148;SDS011;49539;48.160;11.530;2023-12-07T10:25:12;7.63;;;3.58;;
55148;SDS011;49539;48.160;11.530;2023-12-07T10:27:38;5.90;;;3.65;;
55148;SDS011;49539;48.160;11.530;2023-12-07T10:30:05;6.03;;;2.67;;
55148;SDS011;49539;48.160;11.530;2023-12-07T10:32:31;4.80;;;2.67;;
55148;SDS011;49539;48.160;11.530;2023-12-07T10:34:57;6.75;;;3.13;;
55148;SDS011;49539;48.160;11.530;2023-12-07T10:37:26;3.72;;;2.15;;
55148;SDS011;49539;48.160;11.530;2023-12-07T10:39:51;3.33;;;2.10;;
55148;SDS011;49539;48.160;11.530;2023-12-07T10:42:16;5.07;;;2.47;;
55148;SDS011;49539;48.160;11.530;2023-12-07T10:44:43;3.58;;;2.22;;
55148;SDS011;49539;48.160;11.530;2023-12-07T10:47:09;5.88;;;2.40;;
55148;SDS011;49539;48.160;11.530;2023-12-07T10:49:35;4.18;;;2.03;;
55148;SDS011;49539;48.160;11.530;2023-12-07T10:52:03;4.68;;;2.80;;
55148;SDS011;49539;48.160;11.530;2023-12-07T10:57:23;4.80;;;2.78;;
55148;SDS011;49539;48.160;11.530;2023-12-07T10:59:48;3.03;;;2.03;;
55148;SDS011;49539;48.160;11.530;2023-12-07T11:02:15;4.68;;;2.28;;
55148;SDS011;49539;48.160;11.530;2023-12-07T11:04:40;8.57;;;2.72;;
55148;SDS011;49539;48.160;11.530;2023-12-07T11:07:07;4.60;;;2.22;;
55148;SDS011;49539;48.160;11.530;2023-12-07T11:09:35;4.97;;;2.58;;
55148;SDS011;49539;48.160;11.530;2023-12-07T11:14:29;3.95;;;2.50;;
55148;SDS011;49539;48.160;11.530;2023-12-07T11:16:55;5.05;;;2.65;;
55148;SDS011;49539;48.160;11.530;2023-12-07T11:22:00;10.50;;;2.65;;
55148;SDS011;49539;48.160;11.530;2023-12-07T11:24:25;4.50;;;2.53;;
55148;SDS011;49539;48.160;11.530;2023-12-07T11:26:57;8.00;;;2.50;;
55148;SDS011;49539;48.160;11.530;2023-12-07T11:29:26;4.00;;;2.30;;
55148;SDS011;49539;48.160;11.530;2023-12-07T11:31:55;3.63;;;2.08;;
55148;SDS011;49539;48.160;11.530;2023-12-07T11:34:54;4.18;;;2.60;;
55148;SDS011;49539;48.160;11.530;2023-12-07T11:37:16;3.20;;;1.85;;
55148;SDS011;49539;48.160;11.530;2023-12-07T11:39:45;3.72;;;2.47;;
55148;SDS011;49539;48.160;11.530;2023-12-07T11:42:16;5.10;;;2.78;;
55148;SDS011;49539;48.160;11.530;2023-12-07T11:44:43;5.22;;;2.47;;
55148;SDS011;49539;48.160;11.530;2023-12-07T11:47:10;4.97;;;2.40;;
55148;SDS011;49539;48.160;11.530;2023-12-07T11:49:41;4.82;;;2.22;;
55148;SDS011;49539;48.160;11.530;2023-12-07T11:52:16;4.22;;;2.08;;
55148;SDS011;49539;48.160;11.530;2023-12-07T11:54:43;3.53;;;1.77;;
55148;SDS011;49539;48.160;11.530;2023-12-07T11:57:08;4.50;;;2.13;;
55148;SDS011;49539;48.160;11.530;2023-12-07T11:59:33;3.83;;;1.92;;
55148;SDS011;49539;48.160;11.530;2023-12-07T12:01:59;3.63;;;1.52;;
55148;SDS011;49539;48.160;11.530;2023-12-07T12:04:25;2.60;;;1.48;;
55148;SDS011;49539;48.160;11.530;2023-12-07T12:06:52;4.57;;;2.05;;
55148;SDS011;49539;48.160;11.530;2023-12-07T12:09:19;5.65;;;1.63;;
55148;SDS011;49539;48.160;11.530;2023-12-07T12:11:45;5.43;;;2.03;;
55148;SDS011;49539;48.160;11.530;2023-12-07T12:14:12;2.42;;;1.30;;
55148;SDS011;49539;48.160;11.530;2023-12-07T12:16:37;2.90;;;1.48;;
55148;SDS011;49539;48.160;11.530;2023-12-07T12:19:03;1.88;;;1.10;;
55148;SDS011;49539;48.160;11.530;2023-12-07T12:21:28;4.78;;;1.92;;
55148;SDS011;49539;48.160;11.530;2023-12-07T12:23:53;3.28;;;1.60;;
55148;SDS011;49539;48.160;11.530;2023-12-07T12:26:19;5.10;;;1.90;;
55148;SDS011;49539;48.160;11.530;2023-12-07T12:28:45;3.00;;;1.98;;
55148;SDS011;49539;48.160;11.530;2023-12-07T12:31:11;3.63;;;1.88;;
55148;SDS011;49539;48.160;11.530;2023-12-07T12:33:37;4.40;;;2.40;;
55148;SDS011;49539;48.160;11.530;2023-12-07T12:36:03;4.55;;;1.90;;
55148;SDS011;49539;48.160;11.530;2023-12-07T12:38:30;3.28;;;1.60;;
55148;SDS011;49539;48.160;11.530;2023-12-07T12:40:55;3.45;;;1.88;;
55148;SDS011;49539;48.160;11.530;2023-12-07T12:43:20;3.63;;;1.80;;
55148;SDS011;49539;48.160;11.530;2023-12-07T12:45:47;3.10;;;2.00;;
55148;SDS011;49539;48.160;11.530;2023-12-07T12:48:12;5.20;;;2.50;;
55148;SDS011;49539;48.160;11.530;2023-12-07T12:50:39;5.15;;;2.30;;
55148;SDS011;49539;48.160;11.530;2023-12-07T12:53:08;11.88;;;2.40;;
55148;SDS011;49539;48.160;11.530;2023-12-07T12:55:35;7.18;;;3.15;;
55148;SDS011;49539;48.160;11.530;2023-12-07T12:58:00;5.60;;;2.83;;
55148;SDS011;49539;48.160;11.530;2023-12-07T13:00:28;12.30;;;2.88;;
55148;SDS011;49539;48.160;11.530;2023-12-07T13:02:53;4.90;;;2.35;;
55148;SDS011;49539;48.160;11.530;2023-12-07T13:05:19;4.30;;;2.20;;
55148;SDS011;49539;48.160;11.530;2023-12-07T13:07:44;5.07;;;2.28;;
55148;SDS011;49539;48.160;11.530;2023-12-07T13:10:11;4.65;;;2.22;;
55148;SDS011;49539;48.160;11.530;2023-12-07T13:12:36;3.05;;;1.90;;
55148;SDS011;49539;48.160;11.530;2023-12-07T13:15:01;8.18;;;2.38;;
55148;SDS011;49539;48.160;11.530;2023-12-07T13:17:26;7.47;;;2.70;;
55148;SDS011;49539;48.160;11.530;2023-12-07T13:19:52;4.10;;;2.47;;
55148;SDS011;49539;48.160;11.530;2023-12-07T13:22:17;5.13;;;2.38;;
55148;SDS011;49539;48.160;11.530;2023-12-07T13:24:43;4.72;;;2.70;;
55148;SDS011;49539;48.160;11.530;2023-12-07T13:27:08;5.68;;;2.67;;
55148;SDS011;49539;48.160;11.530;2023-12-07T13:29:33;6.75;;;2.85;;
55148;SDS011;49539;48.160;11.530;2023-12-07T13:31:59;5.00;;;2.50;;
55148;SDS011;49539;48.160;11.530;2023-12-07T13:34:24;4.10;;;2.05;;
55148;SDS011;49539;48.160;11.530;2023-12-07T13:36:51;5.05;;;2.47;;
55148;SDS011;49539;48.160;11.530;2023-12-07T13:39:16;6.53;;;3.22;;
55148;SDS011;49539;48.160;11.530;2023-12-07T13:41:45;6.05;;;2.78;;
55148;SDS011;49539;48.160;11.530;2023-12-07T13:44:10;4.43;;;2.17;;
55148;SDS011;49539;48.160;11.530;2023-12-07T13:46:36;7.07;;;3.17;;
55148;SDS011;49539;48.160;11.530;2023-12-07T13:49:02;6.28;;;3.42;;
55148;SDS011;49539;48.160;11.530;2023-12-07T13:51:29;4.95;;;2.28;;
55148;SDS011;49539;48.160;11.530;2023-12-07T13:53:54;4.25;;;1.98;;
55148;SDS011;49539;48.160;11.530;2023-12-07T13:56:21;5.35;;;2.47;;
55148;SDS011;49539;48.160;11.530;2023-12-07T13:58:48;5.00;;;2.78;;
55148;SDS011;49539;48.160;11.530;2023-12-07T14:01:14;6.28;;;3.38;;
55148;SDS011;49539;48.160;11.530;2023-12-07T14:03:39;5.32;;;2.58;;
55148;SDS011;49539;48.160;11.530;2023-12-07T14:06:04;3.77;;;2.17;;
55148;SDS011;49539;48.160;11.530;2023-12-07T14:08:30;5.50;;;2.80;;
55148;SDS011;49539;48.160;11.530;2023-12-07T14:10:57;9.80;;;2.92;;
55148;SDS011;49539;48.160;11.530;2023-12-07T14:13:23;7.10;;;3.13;;
55148;SDS011;49539;48.160;11.530;2023-12-07T14:15:50;4.80;;;2.45;;
55148;SDS011;49539;48.160;11.530;2023-12-07T14:18:16;5.50;;;2.97;;
55148;SDS011;49539;48.160;11.530;2023-12-07T14:20:41;4.93;;;3.03;;
55148;SDS011;49539;48.160;11.530;2023-12-07T14:23:07;7.95;;;2.85;;
55148;SDS011;49539;48.160;11.530;2023-12-07T14:25:32;5.07;;;2.97;;
55148;SDS011;49539;48.160;11.530;2023-12-07T14:27:58;10.50;;;3.33;;